Time,TemperatureF,DewpointF,PressureIn,WindDirection,WindDirectionDegrees,WindSpeedMPH,WindSpeedGustMPH,Humidity,HourlyPrecipIn,Conditions,Clouds,dailyrainin,SoftwareType,DateUTC
2013-05-12 00:07:00,40.8,40.3,29.60,North,-999,-999.0,-999.0,98,-99.99,,,-99.99,meteohub,2013-05-11 23:07:00,
2013-05-12 00:12:00,40.6,40.1,29.60,North,-999,-999.0,-999.0,98,-99.99,,,-99.99,meteohub,2013-05-11 23:12:00,
2013-05-12 00:17:00,40.5,39.9,29.60,North,-999,-999.0,-999.0,98,-99.99,,,-99.99,meteohub,2013-05-11 23:17:00,
2013-05-12 00:22:00,40.5,39.9,29.60,North,-999,-999.0,-999.0,98,-99.99,,,-99.99,meteohub,2013-05-11 23:22:00,
2013-05-12 00:27:00,40.3,39.7,29.60,North,-999,-999.0,-999.0,98,-99.99,,,-99.99,meteohub,2013-05-11 23:27:00,
2013-05-12 00:32:00,40.3,39.7,29.60,North,-999,-999.0,-999.0,98,-99.99,,,-99.99,meteohub,2013-05-11 23:32:00,
2013-05-12 00:37:00,40.1,39.6,29.63,North,-999,-999.0,-999.0,98,-99.99,,,-99.99,meteohub,2013-05-11 23:37:00,
2013-05-12 00:42:00,39.9,39.4,29.63,North,-999,-999.0,-999.0,98,-99.99,,,-99.99,meteohub,2013-05-11 23:42:00,
2013-05-12 00:47:00,39.9,39.4,29.63,North,-999,-999.0,-999.0,98,-99.99,,,-99.99,meteohub,2013-05-11 23:47:00,
2013-05-12 00:52:00,39.7,39.2,29.60,North,-999,-999.0,-999.0,98,-99.99,,,-99.99,meteohub,2013-05-11 23:52:00,
2013-05-12 00:57:00,39.7,39.2,29.60,North,-999,-999.0,-999.0,98,-99.99,,,-99.99,meteohub,2013-05-11 23:57:00,
2013-05-12 01:02:00,39.7,39.2,29.60,North,-999,-999.0,-999.0,98,-99.99,,,-99.99,meteohub,2013-05-12 00:02:00,
2013-05-12 01:07:00,39.4,38.8,29.63,North,-999,-999.0,-999.0,98,-99.99,,,-99.99,meteohub,2013-05-12 00:07:00,
2013-05-12 01:12:00,39.4,38.8,29.63,North,-999,-999.0,-999.0,98,-99.99,,,-99.99,meteohub,2013-05-12 00:12:00,
2013-05-12 01:17:00,39.6,39.0,29.63,North,-999,-999.0,-999.0,98,-99.99,,,-99.99,meteohub,2013-05-12 00:17:00,
2013-05-12 01:22:00,39.7,39.2,29.60,North,-999,-999.0,-999.0,98,-99.99,,,-99.99,meteohub,2013-05-12 00:22:00,
2013-05-12 01:27:00,39.9,39.4,29.60,North,-999,-999.0,-999.0,98,-99.99,,,-99.99,meteohub,2013-05-12 00:27:00,
2013-05-12 01:32:00,39.9,39.4,29.60,North,-999,-999.0,-999.0,98,-99.99,,,-99.99,meteohub,2013-05-12 00:32:00,
2013-05-12 01:37:00,39.9,39.4,29.63,North,-999,-999.0,-999.0,98,-99.99,,,-99.99,meteohub,2013-05-12 00:37:00,
2013-05-12 01:42:00,39.9,39.4,29.63,North,-999,-999.0,-999.0,98,-99.99,,,-99.99,meteohub,2013-05-12 00:42:00,
2013-05-12 01:47:00,39.9,39.4,29.63,North,-999,-999.0,-999.0,98,-99.99,,,-99.99,meteohub,2013-05-12 00:47:00,
2013-05-12 01:52:00,40.1,39.6,29.63,North,-999,-999.0,-999.0,98,-99.99,,,-99.99,meteohub,2013-05-12 00:52:00,
2013-05-12 01:57:00,40.3,39.7,29.63,North,-999,-999.0,-999.0,98,-99.99,,,-99.99,meteohub,2013-05-12 00:57:00,
2013-05-12 02:02:00,40.3,39.7,29.63,North,-999,-999.0,-999.0,98,-99.99,,,-99.99,meteohub,2013-05-12 01:02:00,
2013-05-12 02:07:00,40.5,39.9,29.63,North,-999,-999.0,-999.0,98,-99.99,,,-99.99,meteohub,2013-05-12 01:07:00,
2013-05-12 02:12:00,40.5,39.9,29.63,North,-999,-999.0,-999.0,98,-99.99,,,-99.99,meteohub,2013-05-12 01:12:00,
2013-05-12 02:17:00,40.6,40.1,29.63,North,-999,-999.0,-999.0,98,-99.99,,,-99.99,meteohub,2013-05-12 01:17:00,
2013-05-12 02:22:00,40.6,40.1,29.63,North,-999,-999.0,-999.0,98,-99.99,,,-99.99,meteohub,2013-05-12 01:22:00,
2013-05-12 02:27:00,41.0,40.5,29.63,North,-999,-999.0,-999.0,98,-99.99,,,-99.99,meteohub,2013-05-12 01:27:00,
2013-05-12 02:32:00,41.0,40.5,29.63,North,-999,-999.0,-999.0,98,-99.99,,,-99.99,meteohub,2013-05-12 01:32:00,
2013-05-12 02:37:00,41.0,40.5,29.63,North,-999,-999.0,-999.0,98,-99.99,,,-99.99,meteohub,2013-05-12 01:37:00,
2013-05-12 02:42:00,41.2,40.6,29.63,North,-999,-999.0,-999.0,98,-99.99,,,-99.99,meteohub,2013-05-12 01:42:00,
2013-05-12 02:47:00,41.4,40.8,29.63,North,-999,-999.0,-999.0,98,-99.99,,,-99.99,meteohub,2013-05-12 01:47:00,
2013-05-12 02:52:00,41.5,41.0,29.63,North,-999,-999.0,-999.0,98,-99.99,,,-99.99,meteohub,2013-05-12 01:52:00,
2013-05-12 02:57:00,41.5,41.0,29.63,North,-999,-999.0,-999.0,98,-99.99,,,-99.99,meteohub,2013-05-12 01:57:00,
2013-05-12 03:02:00,41.5,41.0,29.63,North,-999,-999.0,-999.0,98,-99.99,,,-99.99,meteohub,2013-05-12 02:02:00,
2013-05-12 03:07:00,41.2,40.6,29.63,North,-999,-999.0,-999.0,98,-99.99,,,-99.99,meteohub,2013-05-12 02:07:00,
2013-05-12 03:12:00,41.0,40.5,29.63,North,-999,-999.0,-999.0,98,-99.99,,,-99.99,meteohub,2013-05-12 02:12:00,
2013-05-12 03:17:00,40.8,40.3,29.63,North,-999,-999.0,-999.0,98,-99.99,,,-99.99,meteohub,2013-05-12 02:17:00,
2013-05-12 03:22:00,40.6,40.1,29.63,North,-999,-999.0,-999.0,98,-99.99,,,-99.99,meteohub,2013-05-12 02:22:00,
2013-05-12 03:27:00,40.6,40.1,29.63,North,-999,-999.0,-999.0,98,-99.99,,,-99.99,meteohub,2013-05-12 02:27:00,
2013-05-12 03:32:00,40.5,39.9,29.63,North,-999,-999.0,-999.0,98,-99.99,,,-99.99,meteohub,2013-05-12 02:32:00,
2013-05-12 03:37:00,40.5,39.9,29.63,North,-999,-999.0,-999.0,98,-99.99,,,-99.99,meteohub,2013-05-12 02:37:00,
2013-05-12 03:42:00,40.3,39.7,29.63,North,-999,-999.0,-999.0,98,-99.99,,,-99.99,meteohub,2013-05-12 02:42:00,
2013-05-12 03:47:00,40.3,39.7,29.63,North,-999,-999.0,-999.0,98,-99.99,,,-99.99,meteohub,2013-05-12 02:47:00,
2013-05-12 03:52:00,40.1,39.6,29.63,North,-999,-999.0,-999.0,98,-99.99,,,-99.99,meteohub,2013-05-12 02:52:00,
2013-05-12 03:57:00,39.9,39.4,29.63,North,-999,-999.0,-999.0,98,-99.99,,,-99.99,meteohub,2013-05-12 02:57:00,
2013-05-12 04:02:00,39.9,39.4,29.63,North,-999,-999.0,-999.0,98,-99.99,,,-99.99,meteohub,2013-05-12 03:02:00,
2013-05-12 04:07:00,39.9,39.4,29.63,North,-999,-999.0,-999.0,98,-99.99,,,-99.99,meteohub,2013-05-12 03:07:00,
2013-05-12 04:12:00,39.9,39.4,29.63,North,-999,-999.0,-999.0,98,-99.99,,,-99.99,meteohub,2013-05-12 03:12:00,
2013-05-12 04:17:00,39.9,39.4,29.63,North,-999,-999.0,-999.0,98,-99.99,,,-99.99,meteohub,2013-05-12 03:17:00,
2013-05-12 04:22:00,39.7,39.2,29.63,North,-999,-999.0,-999.0,98,-99.99,,,-99.99,meteohub,2013-05-12 03:22:00,
2013-05-12 04:27:00,39.7,39.2,29.63,North,-999,-999.0,-999.0,98,-99.99,,,-99.99,meteohub,2013-05-12 03:27:00,
2013-05-12 04:32:00,39.7,39.2,29.63,North,-999,-999.0,-999.0,98,-99.99,,,-99.99,meteohub,2013-05-12 03:32:00,
2013-05-12 04:37:00,39.7,39.2,29.63,North,-999,-999.0,-999.0,98,-99.99,,,-99.99,meteohub,2013-05-12 03:37:00,
2013-05-12 04:42:00,39.6,39.0,29.63,North,-999,-999.0,-999.0,98,-99.99,,,-99.99,meteohub,2013-05-12 03:42:00,
2013-05-12 04:47:00,39.6,39.0,29.63,North,-999,-999.0,-999.0,98,-99.99,,,-99.99,meteohub,2013-05-12 03:47:00,
2013-05-12 04:52:00,39.4,38.8,29.63,North,-999,-999.0,-999.0,98,-99.99,,,-99.99,meteohub,2013-05-12 03:52:00,
2013-05-12 04:57:00,39.4,38.8,29.63,North,-999,-999.0,-999.0,98,-99.99,,,-99.99,meteohub,2013-05-12 03:57:00,
2013-05-12 05:02:00,39.4,38.8,29.63,North,-999,-999.0,-999.0,98,-99.99,,,-99.99,meteohub,2013-05-12 04:02:00,
2013-05-12 05:07:00,39.4,38.8,29.66,North,-999,-999.0,-999.0,98,-99.99,,,-99.99,meteohub,2013-05-12 04:07:00,
2013-05-12 05:12:00,39.4,38.8,29.66,North,-999,-999.0,-999.0,98,-99.99,,,-99.99,meteohub,2013-05-12 04:12:00,
2013-05-12 05:17:00,39.2,38.7,29.66,North,-999,-999.0,-999.0,98,-99.99,,,-99.99,meteohub,2013-05-12 04:17:00,
2013-05-12 05:22:00,39.2,38.7,29.66,North,-999,-999.0,-999.0,98,-99.99,,,-99.99,meteohub,2013-05-12 04:22:00,
2013-05-12 05:27:00,39.2,38.7,29.66,North,-999,-999.0,-999.0,98,-99.99,,,-99.99,meteohub,2013-05-12 04:27:00,
2013-05-12 05:32:00,39.2,38.7,29.66,North,-999,-999.0,-999.0,98,-99.99,,,-99.99,meteohub,2013-05-12 04:32:00,
2013-05-12 05:37:00,39.2,38.7,29.66,North,-999,-999.0,-999.0,98,-99.99,,,-99.99,meteohub,2013-05-12 04:37:00,
2013-05-12 05:42:00,39.4,38.8,29.66,North,-999,-999.0,-999.0,98,-99.99,,,-99.99,meteohub,2013-05-12 04:42:00,
2013-05-12 05:47:00,39.6,39.0,29.66,North,-999,-999.0,-999.0,98,-99.99,,,-99.99,meteohub,2013-05-12 04:47:00,
2013-05-12 05:52:00,39.7,39.2,29.66,North,-999,-999.0,-999.0,98,-99.99,,,-99.99,meteohub,2013-05-12 04:52:00,
2013-05-12 05:57:00,40.3,39.7,29.66,North,-999,-999.0,-999.0,98,-99.99,,,-99.99,meteohub,2013-05-12 04:57:00,
2013-05-12 06:02:00,40.1,39.6,29.66,North,-999,-999.0,-999.0,98,-99.99,,,-99.99,meteohub,2013-05-12 05:02:00,
2013-05-12 06:07:00,40.3,39.7,29.66,North,-999,-999.0,-999.0,98,-99.99,,,-99.99,meteohub,2013-05-12 05:07:00,
2013-05-12 06:12:00,40.3,39.7,29.66,North,-999,-999.0,-999.0,98,-99.99,,,-99.99,meteohub,2013-05-12 05:12:00,
2013-05-12 06:17:00,40.5,39.9,29.66,North,-999,-999.0,-999.0,98,-99.99,,,-99.99,meteohub,2013-05-12 05:17:00,
2013-05-12 06:22:00,40.6,40.1,29.66,North,-999,-999.0,-999.0,98,-99.99,,,-99.99,meteohub,2013-05-12 05:22:00,
2013-05-12 06:27:00,41.0,40.5,29.66,North,-999,-999.0,-999.0,98,-99.99,,,-99.99,meteohub,2013-05-12 05:27:00,
2013-05-12 06:32:00,41.4,40.8,29.66,North,-999,-999.0,-999.0,98,-99.99,,,-99.99,meteohub,2013-05-12 05:32:00,
2013-05-12 06:37:00,43.0,42.4,29.66,North,-999,-999.0,-999.0,98,-99.99,,,-99.99,meteohub,2013-05-12 05:37:00,
2013-05-12 06:42:00,44.1,43.5,29.66,North,-999,-999.0,-999.0,98,-99.99,,,-99.99,meteohub,2013-05-12 05:42:00,
2013-05-12 06:47:00,45.0,44.4,29.66,North,-999,-999.0,-999.0,98,-99.99,,,-99.99,meteohub,2013-05-12 05:47:00,
2013-05-12 06:52:00,45.3,44.8,29.66,North,-999,-999.0,-999.0,98,-99.99,,,-99.99,meteohub,2013-05-12 05:52:00,
2013-05-12 06:57:00,45.1,44.6,29.66,North,-999,-999.0,-999.0,98,-99.99,,,-99.99,meteohub,2013-05-12 05:57:00,
2013-05-12 07:02:00,45.3,44.8,29.66,North,-999,-999.0,-999.0,98,-99.99,,,-99.99,meteohub,2013-05-12 06:02:00,
2013-05-12 07:07:00,46.8,46.0,29.69,North,-999,-999.0,-999.0,97,-99.99,,,-99.99,meteohub,2013-05-12 06:07:00,
2013-05-12 07:12:00,47.3,45.9,29.69,North,-999,-999.0,-999.0,95,-99.99,,,-99.99,meteohub,2013-05-12 06:12:00,
2013-05-12 07:17:00,48.7,46.6,29.69,North,-999,-999.0,-999.0,92,-99.99,,,-99.99,meteohub,2013-05-12 06:17:00,
2013-05-12 07:22:00,49.5,46.0,29.69,North,-999,-999.0,-999.0,88,-99.99,,,-99.99,meteohub,2013-05-12 06:22:00,
2013-05-12 07:27:00,48.6,44.6,29.69,North,-999,-999.0,-999.0,86,-99.99,,,-99.99,meteohub,2013-05-12 06:27:00,
2013-05-12 07:32:00,47.7,42.8,29.69,North,-999,-999.0,-999.0,83,-99.99,,,-99.99,meteohub,2013-05-12 06:32:00,
2013-05-12 07:37:00,48.7,44.1,29.69,North,-999,-999.0,-999.0,84,-99.99,,,-99.99,meteohub,2013-05-12 06:37:00,
2013-05-12 07:42:00,49.5,44.6,29.69,North,-999,-999.0,-999.0,83,-99.99,,,-99.99,meteohub,2013-05-12 06:42:00,
2013-05-12 07:47:00,49.6,43.7,29.69,North,-999,-999.0,-999.0,80,-99.99,,,-99.99,meteohub,2013-05-12 06:47:00,
2013-05-12 07:52:00,50.5,43.9,29.69,North,-999,-999.0,-999.0,78,-99.99,,,-99.99,meteohub,2013-05-12 06:52:00,
2013-05-12 07:57:00,50.9,43.0,29.69,North,-999,-999.0,-999.0,74,-99.99,,,-99.99,meteohub,2013-05-12 06:57:00,
2013-05-12 08:02:00,52.3,44.6,29.69,North,-999,-999.0,-999.0,75,-99.99,,,-99.99,meteohub,2013-05-12 07:02:00,
2013-05-12 08:07:00,52.7,42.8,29.69,North,-999,-999.0,-999.0,69,-99.99,,,-99.99,meteohub,2013-05-12 07:07:00,
2013-05-12 08:12:00,52.9,43.0,29.69,North,-999,-999.0,-999.0,69,-99.99,,,-99.99,meteohub,2013-05-12 07:12:00,
2013-05-12 08:17:00,53.8,40.3,29.69,North,-999,-999.0,-999.0,60,-99.99,,,-99.99,meteohub,2013-05-12 07:17:00,
2013-05-12 08:22:00,54.3,41.2,29.69,North,-999,-999.0,-999.0,61,-99.99,,,-99.99,meteohub,2013-05-12 07:22:00,
2013-05-12 08:27:00,54.5,40.5,29.69,North,-999,-999.0,-999.0,59,-99.99,,,-99.99,meteohub,2013-05-12 07:27:00,
2013-05-12 08:32:00,56.1,40.6,29.69,North,-999,-999.0,-999.0,56,-99.99,,,-99.99,meteohub,2013-05-12 07:32:00,
2013-05-12 08:42:00,57.0,38.7,29.69,North,-999,-999.0,-999.0,50,-99.99,,,-99.99,meteohub,2013-05-12 07:42:00,
2013-05-12 08:47:00,56.5,36.5,29.69,North,-999,-999.0,-999.0,47,-99.99,,,-99.99,meteohub,2013-05-12 07:47:00,
2013-05-12 08:52:00,56.3,36.9,29.69,North,-999,-999.0,-999.0,48,-99.99,,,-99.99,meteohub,2013-05-12 07:52:00,
2013-05-12 08:57:00,56.8,36.9,29.69,North,-999,-999.0,-999.0,47,-99.99,,,-99.99,meteohub,2013-05-12 07:57:00,
2013-05-12 09:02:00,58.3,38.1,29.69,North,-999,-999.0,-999.0,47,-99.99,,,-99.99,meteohub,2013-05-12 08:02:00,
2013-05-12 09:07:00,58.1,37.4,29.69,North,-999,-999.0,-999.0,46,-99.99,,,-99.99,meteohub,2013-05-12 08:07:00,
2013-05-12 09:12:00,58.5,37.2,29.69,North,-999,-999.0,-999.0,45,-99.99,,,-99.99,meteohub,2013-05-12 08:12:00,
2013-05-12 09:17:00,58.3,36.0,29.69,North,-999,-999.0,-999.0,43,-99.99,,,-99.99,meteohub,2013-05-12 08:17:00,
2013-05-12 09:22:00,57.4,34.5,29.72,North,-999,-999.0,-999.0,42,-99.99,,,-99.99,meteohub,2013-05-12 08:22:00,
2013-05-12 09:27:00,57.7,35.4,29.72,North,-999,-999.0,-999.0,43,-99.99,,,-99.99,meteohub,2013-05-12 08:27:00,
2013-05-12 09:32:00,57.2,33.8,29.72,North,-999,-999.0,-999.0,41,-99.99,,,-99.99,meteohub,2013-05-12 08:32:00,
2013-05-12 09:37:00,57.6,35.2,29.72,North,-999,-999.0,-999.0,43,-99.99,,,-99.99,meteohub,2013-05-12 08:37:00,
2013-05-12 09:42:00,57.2,34.9,29.72,North,-999,-999.0,-999.0,43,-99.99,,,-99.99,meteohub,2013-05-12 08:42:00,
2013-05-12 09:47:00,57.9,35.6,29.72,North,-999,-999.0,-999.0,43,-99.99,,,-99.99,meteohub,2013-05-12 08:47:00,
2013-05-12 09:52:00,59.4,36.3,29.72,North,-999,-999.0,-999.0,42,-99.99,,,-99.99,meteohub,2013-05-12 08:52:00,
2013-05-12 09:57:00,58.3,35.2,29.72,North,-999,-999.0,-999.0,42,-99.99,,,-99.99,meteohub,2013-05-12 08:57:00,
2013-05-12 10:02:00,58.3,33.4,29.72,North,-999,-999.0,-999.0,39,-99.99,,,-99.99,meteohub,2013-05-12 09:02:00,
2013-05-12 10:07:00,58.8,34.5,29.72,North,-999,-999.0,-999.0,40,-99.99,,,-99.99,meteohub,2013-05-12 09:07:00,
2013-05-12 10:12:00,60.1,35.1,29.72,North,-999,-999.0,-999.0,39,-99.99,,,-99.99,meteohub,2013-05-12 09:12:00,
2013-05-12 10:17:00,61.0,36.5,29.72,North,-999,-999.0,-999.0,40,-99.99,,,-99.99,meteohub,2013-05-12 09:17:00,
2013-05-12 10:22:00,61.2,36.0,29.72,North,-999,-999.0,-999.0,39,-99.99,,,-99.99,meteohub,2013-05-12 09:22:00,
2013-05-12 10:27:00,60.1,35.1,29.72,North,-999,-999.0,-999.0,39,-99.99,,,-99.99,meteohub,2013-05-12 09:27:00,
2013-05-12 10:32:00,60.8,35.1,29.72,North,-999,-999.0,-999.0,38,-99.99,,,-99.99,meteohub,2013-05-12 09:32:00,
2013-05-12 10:37:00,62.2,35.6,29.72,North,-999,-999.0,-999.0,37,-99.99,,,-99.99,meteohub,2013-05-12 09:37:00,
2013-05-12 10:42:00,63.1,35.8,29.72,North,-999,-999.0,-999.0,36,-99.99,,,-99.99,meteohub,2013-05-12 09:42:00,
2013-05-12 10:47:00,62.1,35.6,29.72,North,-999,-999.0,-999.0,37,-99.99,,,-99.99,meteohub,2013-05-12 09:47:00,
2013-05-12 10:52:00,62.6,35.2,29.72,North,-999,-999.0,-999.0,36,-99.99,,,-99.99,meteohub,2013-05-12 09:52:00,
2013-05-12 10:57:00,63.5,36.9,29.72,North,-999,-999.0,-999.0,37,-99.99,,,-99.99,meteohub,2013-05-12 09:57:00,
2013-05-12 11:02:00,63.0,34.9,29.72,North,-999,-999.0,-999.0,35,-99.99,,,-99.99,meteohub,2013-05-12 10:02:00,
2013-05-12 11:07:00,62.2,34.3,29.72,North,-999,-999.0,-999.0,35,-99.99,,,-99.99,meteohub,2013-05-12 10:07:00,
2013-05-12 11:12:00,63.0,34.9,29.72,North,-999,-999.0,-999.0,35,-99.99,,,-99.99,meteohub,2013-05-12 10:12:00,
2013-05-12 11:17:00,61.9,34.7,29.72,North,-999,-999.0,-999.0,36,-99.99,,,-99.99,meteohub,2013-05-12 10:17:00,
2013-05-12 11:22:00,61.7,33.8,29.72,North,-999,-999.0,-999.0,35,-99.99,,,-99.99,meteohub,2013-05-12 10:22:00,
2013-05-12 11:27:00,64.8,35.8,29.72,North,-999,-999.0,-999.0,34,-99.99,,,-99.99,meteohub,2013-05-12 10:27:00,
2013-05-12 11:32:00,62.4,33.8,29.72,North,-999,-999.0,-999.0,34,-99.99,,,-99.99,meteohub,2013-05-12 10:32:00,
2013-05-12 11:37:00,61.5,32.9,29.72,North,-999,-999.0,-999.0,34,-99.99,,,-99.99,meteohub,2013-05-12 10:37:00,
2013-05-12 11:42:00,60.1,32.4,29.72,North,-999,-999.0,-999.0,35,-99.99,,,-99.99,meteohub,2013-05-12 10:42:00,
2013-05-12 11:47:00,63.9,35.1,29.72,North,-999,-999.0,-999.0,34,-99.99,,,-99.99,meteohub,2013-05-12 10:47:00,
2013-05-12 11:52:00,63.9,35.1,29.72,North,-999,-999.0,-999.0,34,-99.99,,,-99.99,meteohub,2013-05-12 10:52:00,
2013-05-12 11:57:00,65.3,35.4,29.72,North,-999,-999.0,-999.0,33,-99.99,,,-99.99,meteohub,2013-05-12 10:57:00,
2013-05-12 12:02:00,64.4,34.7,29.72,North,-999,-999.0,-999.0,33,-99.99,,,-99.99,meteohub,2013-05-12 11:02:00,
2013-05-12 12:07:00,65.1,35.4,29.72,North,-999,-999.0,-999.0,33,-99.99,,,-99.99,meteohub,2013-05-12 11:07:00,
2013-05-12 12:12:00,64.2,34.5,29.72,North,-999,-999.0,-999.0,33,-99.99,,,-99.99,meteohub,2013-05-12 11:12:00,
2013-05-12 12:17:00,64.8,35.1,29.72,North,-999,-999.0,-999.0,33,-99.99,,,-99.99,meteohub,2013-05-12 11:17:00,
2013-05-12 12:22:00,63.0,33.4,29.72,North,-999,-999.0,-999.0,33,-99.99,,,-99.99,meteohub,2013-05-12 11:22:00,
2013-05-12 12:27:00,64.4,34.7,29.72,North,-999,-999.0,-999.0,33,-99.99,,,-99.99,meteohub,2013-05-12 11:27:00,
2013-05-12 12:32:00,64.9,34.3,29.72,North,-999,-999.0,-999.0,32,-99.99,,,-99.99,meteohub,2013-05-12 11:32:00,
2013-05-12 12:37:00,65.1,34.5,29.69,North,-999,-999.0,-999.0,32,-99.99,,,-99.99,meteohub,2013-05-12 11:37:00,
2013-05-12 12:42:00,64.6,34.9,29.69,North,-999,-999.0,-999.0,33,-99.99,,,-99.99,meteohub,2013-05-12 11:42:00,
2013-05-12 12:47:00,64.4,33.1,29.69,North,-999,-999.0,-999.0,31,-99.99,,,-99.99,meteohub,2013-05-12 11:47:00,
2013-05-12 12:52:00,65.5,35.6,29.69,North,-999,-999.0,-999.0,33,-99.99,,,-99.99,meteohub,2013-05-12 11:52:00,
2013-05-12 12:57:00,65.1,34.5,29.69,North,-999,-999.0,-999.0,32,-99.99,,,-99.99,meteohub,2013-05-12 11:57:00,
2013-05-12 13:02:00,66.0,34.5,29.69,North,-999,-999.0,-999.0,31,-99.99,,,-99.99,meteohub,2013-05-12 12:02:00,
2013-05-12 13:07:00,65.8,34.3,29.69,North,-999,-999.0,-999.0,31,-99.99,,,-99.99,meteohub,2013-05-12 12:07:00,
2013-05-12 13:12:00,64.4,33.1,29.69,North,-999,-999.0,-999.0,31,-99.99,,,-99.99,meteohub,2013-05-12 12:12:00,
2013-05-12 13:17:00,64.2,33.1,29.69,North,-999,-999.0,-999.0,31,-99.99,,,-99.99,meteohub,2013-05-12 12:17:00,
2013-05-12 13:22:00,64.0,32.9,29.69,North,-999,-999.0,-999.0,31,-99.99,,,-99.99,meteohub,2013-05-12 12:22:00,
2013-05-12 13:27:00,64.4,32.4,29.69,North,-999,-999.0,-999.0,30,-99.99,,,-99.99,meteohub,2013-05-12 12:27:00,
2013-05-12 13:32:00,65.8,35.2,29.69,North,-999,-999.0,-999.0,32,-99.99,,,-99.99,meteohub,2013-05-12 12:32:00,
2013-05-12 13:37:00,66.0,34.5,29.69,North,-999,-999.0,-999.0,31,-99.99,,,-99.99,meteohub,2013-05-12 12:37:00,
2013-05-12 13:42:00,64.2,33.8,29.69,North,-999,-999.0,-999.0,32,-99.99,,,-99.99,meteohub,2013-05-12 12:42:00,
2013-05-12 13:47:00,63.3,33.8,29.69,North,-999,-999.0,-999.0,33,-99.99,,,-99.99,meteohub,2013-05-12 12:47:00,
2013-05-12 13:52:00,62.6,33.1,29.69,North,-999,-999.0,-999.0,33,-99.99,,,-99.99,meteohub,2013-05-12 12:52:00,
2013-05-12 13:57:00,62.2,33.6,29.69,North,-999,-999.0,-999.0,34,-99.99,,,-99.99,meteohub,2013-05-12 12:57:00,
2013-05-12 14:02:00,61.7,33.1,29.69,North,-999,-999.0,-999.0,34,-99.99,,,-99.99,meteohub,2013-05-12 13:02:00,
2013-05-12 14:07:00,61.2,33.3,29.69,North,-999,-999.0,-999.0,35,-99.99,,,-99.99,meteohub,2013-05-12 13:07:00,
2013-05-12 14:12:00,60.4,33.4,29.69,North,-999,-999.0,-999.0,36,-99.99,,,-99.99,meteohub,2013-05-12 13:12:00,
2013-05-12 14:17:00,59.4,33.1,29.69,North,-999,-999.0,-999.0,37,-99.99,,,-99.99,meteohub,2013-05-12 13:17:00,
2013-05-12 14:22:00,59.0,33.4,29.69,North,-999,-999.0,-999.0,38,-99.99,,,-99.99,meteohub,2013-05-12 13:22:00,
2013-05-12 14:27:00,58.1,33.3,29.69,North,-999,-999.0,-999.0,39,-99.99,,,-99.99,meteohub,2013-05-12 13:27:00,
2013-05-12 14:32:00,57.6,34.2,29.69,North,-999,-999.0,-999.0,41,-99.99,,,-99.99,meteohub,2013-05-12 13:32:00,
2013-05-12 14:37:00,57.6,35.2,29.69,North,-999,-999.0,-999.0,43,-99.99,,,-99.99,meteohub,2013-05-12 13:37:00,
2013-05-12 14:42:00,57.2,35.6,29.69,North,-999,-999.0,-999.0,44,-99.99,,,-99.99,meteohub,2013-05-12 13:42:00,
2013-05-12 14:47:00,56.8,35.8,29.69,North,-999,-999.0,-999.0,45,-99.99,,,-99.99,meteohub,2013-05-12 13:47:00,
2013-05-12 14:52:00,56.7,36.1,29.69,North,-999,-999.0,-999.0,46,-99.99,,,-99.99,meteohub,2013-05-12 13:52:00,
2013-05-12 14:57:00,56.7,36.7,29.69,North,-999,-999.0,-999.0,47,-99.99,,,-99.99,meteohub,2013-05-12 13:57:00,
2013-05-12 15:02:00,56.5,36.5,29.69,North,-999,-999.0,-999.0,47,-99.99,,,-99.99,meteohub,2013-05-12 14:02:00,
2013-05-12 15:07:00,56.7,37.2,29.69,North,-999,-999.0,-999.0,48,-99.99,,,-99.99,meteohub,2013-05-12 14:07:00,
2013-05-12 15:12:00,56.8,37.4,29.69,North,-999,-999.0,-999.0,48,-99.99,,,-99.99,meteohub,2013-05-12 14:12:00,
2013-05-12 15:17:00,56.8,37.4,29.69,North,-999,-999.0,-999.0,48,-99.99,,,-99.99,meteohub,2013-05-12 14:17:00,
2013-05-12 15:22:00,56.8,37.4,29.69,North,-999,-999.0,-999.0,48,-99.99,,,-99.99,meteohub,2013-05-12 14:22:00,
2013-05-12 15:27:00,56.8,37.9,29.69,North,-999,-999.0,-999.0,49,-99.99,,,-99.99,meteohub,2013-05-12 14:27:00,
2013-05-12 15:32:00,56.7,37.8,29.69,North,-999,-999.0,-999.0,49,-99.99,,,-99.99,meteohub,2013-05-12 14:32:00,
2013-05-12 15:37:00,56.8,38.5,29.69,North,-999,-999.0,-999.0,50,-99.99,,,-99.99,meteohub,2013-05-12 14:37:00,
2013-05-12 15:42:00,56.3,40.3,29.69,North,-999,-999.0,-999.0,55,-99.99,,,-99.99,meteohub,2013-05-12 14:42:00,
2013-05-12 15:47:00,55.6,40.1,29.69,North,-999,-999.0,-999.0,56,-99.99,,,-99.99,meteohub,2013-05-12 14:47:00,
2013-05-12 15:52:00,55.0,41.4,29.66,North,-999,-999.0,-999.0,60,-99.99,,,-99.99,meteohub,2013-05-12 14:52:00,
2013-05-12 15:57:00,54.9,41.7,29.66,North,-999,-999.0,-999.0,61,-99.99,,,-99.99,meteohub,2013-05-12 14:57:00,
2013-05-12 16:02:00,55.0,42.6,29.66,North,-999,-999.0,-999.0,63,-99.99,,,-99.99,meteohub,2013-05-12 15:02:00,
2013-05-12 16:07:00,54.7,43.2,29.66,North,-999,-999.0,-999.0,65,-99.99,,,-99.99,meteohub,2013-05-12 15:07:00,
2013-05-12 16:12:00,54.5,43.7,29.66,North,-999,-999.0,-999.0,67,-99.99,,,-99.99,meteohub,2013-05-12 15:12:00,
2013-05-12 16:17:00,54.3,43.7,29.66,North,-999,-999.0,-999.0,67,-99.99,,,-99.99,meteohub,2013-05-12 15:17:00,
2013-05-12 16:22:00,54.3,44.1,29.66,North,-999,-999.0,-999.0,68,-99.99,,,-99.99,meteohub,2013-05-12 15:22:00,
2013-05-12 16:27:00,54.1,43.9,29.66,North,-999,-999.0,-999.0,68,-99.99,,,-99.99,meteohub,2013-05-12 15:27:00,
2013-05-12 16:32:00,53.8,44.2,29.66,North,-999,-999.0,-999.0,70,-99.99,,,-99.99,meteohub,2013-05-12 15:32:00,
2013-05-12 16:37:00,53.6,44.4,29.66,North,-999,-999.0,-999.0,71,-99.99,,,-99.99,meteohub,2013-05-12 15:37:00,
2013-05-12 16:42:00,53.4,45.3,29.66,North,-999,-999.0,-999.0,74,-99.99,,,-99.99,meteohub,2013-05-12 15:42:00,
2013-05-12 16:47:00,53.2,46.2,29.66,North,-999,-999.0,-999.0,77,-99.99,,,-99.99,meteohub,2013-05-12 15:47:00,
2013-05-12 16:52:00,53.2,46.9,29.66,North,-999,-999.0,-999.0,79,-99.99,,,-99.99,meteohub,2013-05-12 15:52:00,
2013-05-12 16:57:00,52.7,47.1,29.66,North,-999,-999.0,-999.0,81,-99.99,,,-99.99,meteohub,2013-05-12 15:57:00,
2013-05-12 17:02:00,52.5,47.1,29.66,North,-999,-999.0,-999.0,82,-99.99,,,-99.99,meteohub,2013-05-12 16:02:00,
2013-05-12 17:07:00,52.3,47.3,29.66,North,-999,-999.0,-999.0,83,-99.99,,,-99.99,meteohub,2013-05-12 16:07:00,
2013-05-12 17:12:00,52.2,47.5,29.66,North,-999,-999.0,-999.0,84,-99.99,,,-99.99,meteohub,2013-05-12 16:12:00,
2013-05-12 17:17:00,52.0,47.3,29.66,North,-999,-999.0,-999.0,84,-99.99,,,-99.99,meteohub,2013-05-12 16:17:00,
2013-05-12 17:22:00,52.0,47.7,29.63,North,-999,-999.0,-999.0,85,-99.99,,,-99.99,meteohub,2013-05-12 16:22:00,
2013-05-12 17:27:00,51.8,47.8,29.63,North,-999,-999.0,-999.0,86,-99.99,,,-99.99,meteohub,2013-05-12 16:27:00,
2013-05-12 17:32:00,51.6,47.8,29.63,North,-999,-999.0,-999.0,87,-99.99,,,-99.99,meteohub,2013-05-12 16:32:00,
2013-05-12 17:37:00,51.6,48.2,29.63,North,-999,-999.0,-999.0,88,-99.99,,,-99.99,meteohub,2013-05-12 16:37:00,
2013-05-12 17:42:00,51.6,48.7,29.63,North,-999,-999.0,-999.0,90,-99.99,,,-99.99,meteohub,2013-05-12 16:42:00,
2013-05-12 17:47:00,51.6,49.1,29.63,North,-999,-999.0,-999.0,91,-99.99,,,-99.99,meteohub,2013-05-12 16:47:00,
2013-05-12 17:52:00,51.6,49.1,29.63,North,-999,-999.0,-999.0,91,-99.99,,,-99.99,meteohub,2013-05-12 16:52:00,
2013-05-12 17:57:00,51.6,49.5,29.63,North,-999,-999.0,-999.0,92,-99.99,,,-99.99,meteohub,2013-05-12 16:57:00,
2013-05-12 18:02:00,51.6,49.6,29.63,North,-999,-999.0,-999.0,93,-99.99,,,-99.99,meteohub,2013-05-12 17:02:00,
2013-05-12 18:07:00,51.6,50.0,29.63,North,-999,-999.0,-999.0,94,-99.99,,,-99.99,meteohub,2013-05-12 17:07:00,
2013-05-12 18:12:00,51.8,50.2,29.63,North,-999,-999.0,-999.0,94,-99.99,,,-99.99,meteohub,2013-05-12 17:12:00,
2013-05-12 18:17:00,51.8,50.2,29.63,North,-999,-999.0,-999.0,94,-99.99,,,-99.99,meteohub,2013-05-12 17:17:00,
2013-05-12 18:22:00,51.8,50.4,29.63,North,-999,-999.0,-999.0,95,-99.99,,,-99.99,meteohub,2013-05-12 17:22:00,
2013-05-12 18:27:00,51.8,50.4,29.63,North,-999,-999.0,-999.0,95,-99.99,,,-99.99,meteohub,2013-05-12 17:27:00,
2013-05-12 18:32:00,51.8,50.4,29.63,North,-999,-999.0,-999.0,95,-99.99,,,-99.99,meteohub,2013-05-12 17:32:00,
2013-05-12 18:37:00,51.8,50.4,29.63,North,-999,-999.0,-999.0,95,-99.99,,,-99.99,meteohub,2013-05-12 17:37:00,
2013-05-12 18:42:00,52.0,50.5,29.63,North,-999,-999.0,-999.0,95,-99.99,,,-99.99,meteohub,2013-05-12 17:42:00,
2013-05-12 18:47:00,51.8,50.4,29.63,North,-999,-999.0,-999.0,95,-99.99,,,-99.99,meteohub,2013-05-12 17:47:00,
2013-05-12 18:52:00,51.8,50.7,29.63,North,-999,-999.0,-999.0,96,-99.99,,,-99.99,meteohub,2013-05-12 17:52:00,
2013-05-12 18:57:00,51.8,50.7,29.63,North,-999,-999.0,-999.0,96,-99.99,,,-99.99,meteohub,2013-05-12 17:57:00,
2013-05-12 19:02:00,51.6,50.7,29.63,North,-999,-999.0,-999.0,97,-99.99,,,-99.99,meteohub,2013-05-12 18:02:00,
2013-05-12 19:07:00,51.6,50.7,29.63,North,-999,-999.0,-999.0,97,-99.99,,,-99.99,meteohub,2013-05-12 18:07:00,
2013-05-12 19:12:00,51.6,50.7,29.63,North,-999,-999.0,-999.0,97,-99.99,,,-99.99,meteohub,2013-05-12 18:12:00,
2013-05-12 19:17:00,51.4,50.9,29.63,North,-999,-999.0,-999.0,98,-99.99,,,-99.99,meteohub,2013-05-12 18:17:00,
2013-05-12 19:22:00,51.4,50.9,29.60,North,-999,-999.0,-999.0,98,-99.99,,,-99.99,meteohub,2013-05-12 18:22:00,
2013-05-12 19:27:00,51.4,50.9,29.60,North,-999,-999.0,-999.0,98,-99.99,,,-99.99,meteohub,2013-05-12 18:27:00,
2013-05-12 19:32:00,51.6,51.1,29.60,North,-999,-999.0,-999.0,98,-99.99,,,-99.99,meteohub,2013-05-12 18:32:00,
2013-05-12 19:37:00,51.6,51.1,29.60,North,-999,-999.0,-999.0,98,-99.99,,,-99.99,meteohub,2013-05-12 18:37:00,
2013-05-12 19:42:00,51.6,51.1,29.60,North,-999,-999.0,-999.0,98,-99.99,,,-99.99,meteohub,2013-05-12 18:42:00,
2013-05-12 19:47:00,51.6,51.1,29.60,North,-999,-999.0,-999.0,98,-99.99,,,-99.99,meteohub,2013-05-12 18:47:00,
2013-05-12 19:52:00,51.6,51.1,29.63,North,-999,-999.0,-999.0,98,-99.99,,,-99.99,meteohub,2013-05-12 18:52:00,
2013-05-12 19:57:00,51.6,51.1,29.63,North,-999,-999.0,-999.0,98,-99.99,,,-99.99,meteohub,2013-05-12 18:57:00,
2013-05-12 20:02:00,51.6,51.1,29.63,North,-999,-999.0,-999.0,98,-99.99,,,-99.99,meteohub,2013-05-12 19:02:00,
2013-05-12 20:07:00,51.6,51.1,29.60,North,-999,-999.0,-999.0,98,-99.99,,,-99.99,meteohub,2013-05-12 19:07:00,
2013-05-12 20:12:00,51.6,51.1,29.60,North,-999,-999.0,-999.0,98,-99.99,,,-99.99,meteohub,2013-05-12 19:12:00,
2013-05-12 20:17:00,51.6,51.1,29.60,North,-999,-999.0,-999.0,98,-99.99,,,-99.99,meteohub,2013-05-12 19:17:00,
2013-05-12 20:22:00,51.6,51.1,29.60,North,-999,-999.0,-999.0,98,-99.99,,,-99.99,meteohub,2013-05-12 19:22:00,
2013-05-12 20:27:00,51.6,51.1,29.60,North,-999,-999.0,-999.0,98,-99.99,,,-99.99,meteohub,2013-05-12 19:27:00,
2013-05-12 20:32:00,51.6,51.1,29.60,North,-999,-999.0,-999.0,98,-99.99,,,-99.99,meteohub,2013-05-12 19:32:00,
2013-05-12 20:37:00,51.6,51.1,29.60,North,-999,-999.0,-999.0,98,-99.99,,,-99.99,meteohub,2013-05-12 19:37:00,
2013-05-12 20:42:00,51.6,51.1,29.60,North,-999,-999.0,-999.0,98,-99.99,,,-99.99,meteohub,2013-05-12 19:42:00,
2013-05-12 20:47:00,51.6,51.1,29.60,North,-999,-999.0,-999.0,98,-99.99,,,-99.99,meteohub,2013-05-12 19:47:00,
2013-05-12 20:52:00,51.6,51.1,29.60,North,-999,-999.0,-999.0,98,-99.99,,,-99.99,meteohub,2013-05-12 19:52:00,
2013-05-12 20:57:00,51.6,51.1,29.60,North,-999,-999.0,-999.0,98,-99.99,,,-99.99,meteohub,2013-05-12 19:57:00,
2013-05-12 21:02:00,51.6,51.1,29.60,North,-999,-999.0,-999.0,98,-99.99,,,-99.99,meteohub,2013-05-12 20:02:00,
2013-05-12 21:07:00,51.8,51.3,29.60,North,-999,-999.0,-999.0,98,-99.99,,,-99.99,meteohub,2013-05-12 20:07:00,
2013-05-12 21:12:00,51.8,51.3,29.60,North,-999,-999.0,-999.0,98,-99.99,,,-99.99,meteohub,2013-05-12 20:12:00,
2013-05-12 21:17:00,51.8,51.3,29.60,North,-999,-999.0,-999.0,98,-99.99,,,-99.99,meteohub,2013-05-12 20:17:00,
2013-05-12 21:22:00,51.8,51.3,29.60,North,-999,-999.0,-999.0,98,-99.99,,,-99.99,meteohub,2013-05-12 20:22:00,
2013-05-12 21:27:00,52.0,51.4,29.60,North,-999,-999.0,-999.0,98,-99.99,,,-99.99,meteohub,2013-05-12 20:27:00,
2013-05-12 21:32:00,52.0,51.4,29.60,North,-999,-999.0,-999.0,98,-99.99,,,-99.99,meteohub,2013-05-12 20:32:00,
2013-05-12 21:37:00,52.0,51.4,29.63,North,-999,-999.0,-999.0,98,-99.99,,,-99.99,meteohub,2013-05-12 20:37:00,
2013-05-12 21:42:00,52.2,51.6,29.63,North,-999,-999.0,-999.0,98,-99.99,,,-99.99,meteohub,2013-05-12 20:42:00,
2013-05-12 21:47:00,52.2,51.6,29.63,North,-999,-999.0,-999.0,98,-99.99,,,-99.99,meteohub,2013-05-12 20:47:00,
2013-05-12 21:52:00,52.2,51.6,29.63,North,-999,-999.0,-999.0,98,-99.99,,,-99.99,meteohub,2013-05-12 20:52:00,
2013-05-12 21:57:00,52.2,51.6,29.63,North,-999,-999.0,-999.0,98,-99.99,,,-99.99,meteohub,2013-05-12 20:57:00,
2013-05-12 22:02:00,52.2,51.6,29.63,North,-999,-999.0,-999.0,98,-99.99,,,-99.99,meteohub,2013-05-12 21:02:00,
2013-05-12 22:07:00,52.3,51.8,29.63,North,-999,-999.0,-999.0,98,-99.99,,,-99.99,meteohub,2013-05-12 21:07:00,
2013-05-12 22:12:00,52.3,51.8,29.63,North,-999,-999.0,-999.0,98,-99.99,,,-99.99,meteohub,2013-05-12 21:12:00,
2013-05-12 22:17:00,52.3,51.8,29.63,North,-999,-999.0,-999.0,98,-99.99,,,-99.99,meteohub,2013-05-12 21:17:00,
2013-05-12 22:22:00,52.3,51.8,29.63,North,-999,-999.0,-999.0,98,-99.99,,,-99.99,meteohub,2013-05-12 21:22:00,
2013-05-12 22:27:00,52.3,51.8,29.63,North,-999,-999.0,-999.0,98,-99.99,,,-99.99,meteohub,2013-05-12 21:27:00,
2013-05-12 22:32:00,52.3,51.8,29.63,North,-999,-999.0,-999.0,98,-99.99,,,-99.99,meteohub,2013-05-12 21:32:00,
2013-05-12 22:37:00,52.3,51.8,29.63,North,-999,-999.0,-999.0,98,-99.99,,,-99.99,meteohub,2013-05-12 21:37:00,
2013-05-12 22:42:00,52.3,51.8,29.63,North,-999,-999.0,-999.0,98,-99.99,,,-99.99,meteohub,2013-05-12 21:42:00,
2013-05-12 22:47:00,52.3,51.8,29.63,North,-999,-999.0,-999.0,98,-99.99,,,-99.99,meteohub,2013-05-12 21:47:00,
2013-05-12 22:52:00,52.3,51.8,29.60,North,-999,-999.0,-999.0,98,-99.99,,,-99.99,meteohub,2013-05-12 21:52:00,
2013-05-12 22:57:00,52.5,52.0,29.60,North,-999,-999.0,-999.0,98,-99.99,,,-99.99,meteohub,2013-05-12 21:57:00,
2013-05-12 23:02:00,52.5,52.0,29.60,North,-999,-999.0,-999.0,98,-99.99,,,-99.99,meteohub,2013-05-12 22:02:00,
2013-05-12 23:07:00,52.5,52.0,29.60,North,-999,-999.0,-999.0,98,-99.99,,,-99.99,meteohub,2013-05-12 22:07:00,
2013-05-12 23:12:00,52.5,52.0,29.60,North,-999,-999.0,-999.0,98,-99.99,,,-99.99,meteohub,2013-05-12 22:12:00,
2013-05-12 23:17:00,52.5,52.0,29.60,North,-999,-999.0,-999.0,98,-99.99,,,-99.99,meteohub,2013-05-12 22:17:00,
2013-05-12 23:22:00,52.5,51.6,29.63,North,-999,-999.0,-999.0,97,-99.99,,,-99.99,meteohub,2013-05-12 22:22:00,
2013-05-12 23:27:00,52.5,51.6,29.63,North,-999,-999.0,-999.0,97,-99.99,,,-99.99,meteohub,2013-05-12 22:27:00,
2013-05-12 23:32:00,52.5,51.6,29.63,North,-999,-999.0,-999.0,97,-99.99,,,-99.99,meteohub,2013-05-12 22:32:00,
2013-05-12 23:37:00,52.5,51.6,29.63,North,-999,-999.0,-999.0,97,-99.99,,,-99.99,meteohub,2013-05-12 22:37:00,
2013-05-12 23:42:00,52.3,51.4,29.63,North,-999,-999.0,-999.0,97,-99.99,,,-99.99,meteohub,2013-05-12 22:42:00,
2013-05-12 23:47:00,52.3,51.4,29.63,North,-999,-999.0,-999.0,97,-99.99,,,-99.99,meteohub,2013-05-12 22:47:00,
2013-05-12 23:52:00,52.2,51.3,29.60,North,-999,-999.0,-999.0,97,-99.99,,,-99.99,meteohub,2013-05-12 22:52:00,
2013-05-12 23:57:00,52.2,51.3,29.60,North,-999,-999.0,-999.0,97,-99.99,,,-99.99,meteohub,2013-05-12 22:57:00,